createdAt,value
2022-10-12T02:42:23.579Z,99.90
2022-10-12T07:26:04.347Z,99.90
2022-10-12T07:31:49.810Z,99.90
2022-10-12T07:36:58.595Z,99.90
2022-10-12T07:42:07.534Z,99.90
2022-10-12T07:47:06.158Z,99.90
2022-10-12T07:58:55.595Z,99.90
2022-10-12T08:04:00.301Z,99.40
2022-10-12T08:09:13.056Z,99.90
2022-10-12T08:21:21.515Z,99.90
2022-10-12T08:52:47.475Z,99.90
2022-10-12T08:58:57.748Z,99.90
2022-10-12T09:06:02.396Z,99.90
2022-10-12T09:12:09.341Z,99.90
2022-10-12T11:18:38.110Z,52.80
2022-10-12T11:29:14.546Z,53.70
2022-10-12T11:34:14.022Z,54.20
2022-10-12T11:39:28.060Z,55.50
2022-10-12T11:45:12.535Z,57.10
2022-10-12T11:50:30.802Z,59.00
2022-10-12T11:55:34.030Z,62.80
2022-10-12T12:00:46.405Z,66.40
2022-10-12T12:05:40.699Z,68.30
2022-10-12T12:10:45.380Z,72.40
2022-10-12T12:21:51.301Z,74.20
2022-10-12T12:26:48.515Z,76.20
2022-10-12T12:31:41.689Z,76.60
2022-10-12T12:36:41.416Z,76.70
2022-10-12T12:42:30.970Z,77.00
2022-10-12T12:48:39.932Z,78.40
2022-10-12T12:54:20.033Z,79.30
2022-10-12T13:00:27.301Z,79.50
2022-10-12T13:06:36.174Z,81.40
2022-10-12T13:12:44.019Z,80.80
2022-10-12T13:18:51.484Z,82.80
2022-10-12T13:24:16.510Z,81.80
2022-10-12T13:30:06.982Z,83.70
2022-10-12T13:42:10.595Z,83.90
2022-10-12T13:48:39.942Z,84.40
2022-10-12T13:54:47.913Z,85.30
2022-10-12T14:00:56.545Z,86.50
2022-10-12T14:07:04.453Z,86.80
2022-10-12T14:13:13.303Z,87.00
2022-10-12T14:19:21.196Z,89.00
2022-10-12T14:25:29.916Z,88.50
2022-10-12T14:31:39.880Z,89.00
2022-10-12T14:37:47.271Z,89.90
2022-10-12T14:43:15.198Z,90.50
2022-10-12T14:48:19.020Z,91.40
2022-10-12T14:53:14.452Z,91.80
2022-10-12T14:58:09.109Z,92.90
2022-10-12T15:03:02.642Z,93.60
2022-10-12T15:07:55.626Z,94.30
2022-10-12T15:12:48.610Z,95.00
2022-10-12T15:17:41.617Z,96.60
2022-10-12T15:22:36.433Z,98.40
2022-10-12T15:27:28.960Z,99.90
2022-10-12T15:32:23.809Z,99.90
2022-10-12T15:37:29.317Z,99.90
2022-10-12T15:42:21.780Z,99.90
2022-10-12T15:47:14.533Z,99.90
2022-10-12T15:52:13.203Z,99.90
2022-10-12T15:57:07.322Z,99.90
2022-10-12T16:02:00.055Z,99.90
2022-10-12T16:06:52.493Z,99.90
2022-10-12T16:11:44.928Z,99.90
2022-10-12T16:16:37.887Z,99.90
2022-10-12T16:21:31.205Z,99.90
2022-10-12T16:26:27.644Z,99.90
2022-10-12T16:31:20.806Z,99.90
2022-10-12T16:36:16.373Z,99.90
2022-10-12T16:41:14.235Z,99.90
2022-10-12T16:46:07.578Z,99.90
2022-10-12T16:51:00.557Z,99.90
2022-10-12T16:55:53.456Z,99.90
2022-10-12T17:06:02.169Z,99.90
2022-10-12T17:10:55.803Z,99.90
2022-10-12T17:15:49.251Z,99.90
2022-10-12T17:20:42.098Z,99.90
2022-10-12T17:25:35.008Z,99.90
2022-10-12T17:35:42.788Z,99.90
2022-10-12T17:40:36.496Z,99.90
2022-10-12T17:45:30.455Z,99.90
2022-10-12T17:50:23.041Z,99.90
2022-10-12T17:55:36.166Z,99.90
2022-10-12T18:00:29.222Z,99.90
2022-10-12T18:05:21.906Z,99.90
2022-10-12T18:10:19.118Z,99.90
2022-10-12T18:15:16.270Z,99.90
2022-10-12T18:20:09.570Z,99.90
2022-10-12T18:25:04.895Z,99.90
2022-10-12T18:29:59.625Z,99.90
2022-10-12T18:34:54.020Z,99.90
2022-10-12T18:39:52.590Z,99.90
2022-10-12T18:44:47.580Z,99.90
2022-10-12T18:49:41.386Z,99.90
2022-10-12T18:54:34.090Z,99.90
2022-10-12T18:59:45.025Z,99.90
2022-10-12T19:10:42.534Z,99.90
2022-10-12T19:15:49.058Z,99.90
2022-10-12T19:21:02.740Z,99.90
2022-10-12T19:26:28.649Z,99.90
2022-10-12T19:31:46.795Z,99.90
2022-10-12T19:36:48.605Z,99.90
2022-10-12T19:41:50.820Z,99.90
2022-10-12T19:46:57.535Z,99.90
2022-10-12T19:52:04.636Z,99.90
2022-10-12T19:57:06.150Z,99.90
2022-10-12T20:02:12.936Z,99.90
2022-10-12T20:12:53.999Z,99.90
2022-10-12T20:17:57.827Z,99.90
2022-10-12T20:22:50.978Z,99.90
2022-10-12T20:27:43.631Z,99.90
2022-10-12T20:32:41.359Z,99.90
2022-10-12T20:37:54.161Z,99.90
2022-10-12T20:42:59.253Z,99.90
2022-10-12T20:47:54.496Z,99.90
2022-10-12T20:52:48.318Z,99.90
2022-10-12T20:57:41.062Z,99.90
2022-10-12T21:02:34.096Z,99.90
2022-10-12T21:07:26.902Z,99.90
2022-10-12T21:12:19.870Z,99.90
2022-10-12T21:17:13.131Z,99.90
2022-10-12T21:22:12.182Z,99.90
2022-10-12T21:32:39.241Z,99.90
2022-10-12T21:37:39.205Z,99.90
2022-10-12T21:42:31.885Z,99.90
2022-10-12T21:47:29.662Z,99.90
2022-10-12T21:52:23.647Z,99.90
2022-10-12T21:57:18.823Z,99.90
2022-10-12T22:02:11.819Z,99.90
2022-10-12T22:07:09.573Z,99.90
2022-10-12T22:12:02.372Z,99.90
2022-10-12T22:17:02.188Z,99.90
2022-10-12T22:21:56.050Z,99.90
2022-10-12T22:26:53.090Z,99.90
2022-10-12T22:32:21.187Z,99.90
2022-10-12T22:38:29.403Z,99.90
2022-10-12T22:44:37.222Z,99.90
2022-10-12T22:50:47.320Z,99.90
2022-10-12T22:56:55.713Z,99.90
2022-10-12T23:03:03.893Z,99.90
2022-10-12T23:09:11.804Z,99.90
2022-10-12T23:15:21.600Z,99.90
2022-10-12T23:21:30.167Z,99.90
2022-10-12T23:27:38.356Z,99.90
2022-10-12T23:52:34.142Z,99.90
2022-10-12T23:58:42.128Z,99.90
